Time;durP1;ratioP1;P1;durP2;ratioP2;P2;SDS_P1;SDS_P2;PMS_P1;PMS_P2;Temp;Humidity;BMP_temperature;BMP_pressure;BME280_temperature;BME280_humidity;BME280_pressure;Samples;Min_cycle;Max_cycle;Signal;HPM_P1;HPM_P2
2023/07/23 00:01:07;;;;;;;16.08;14.63;;;;;;;;;;10263610;28;20091;-69
2023/07/23 00:06:04;;;;;;;15.52;14.20;;;;;;;;;;10270347;28;20048;-72
2023/07/23 00:11:01;;;;;;;15.05;13.73;;;;;;;;;;10279947;28;20071;-69
2023/07/23 00:15:57;;;;;;;16.67;15.00;;;;;;;;;;10281190;28;20048;-69
2023/07/23 00:20:53;;;;;;;17.25;15.65;;;;;;;;;;10272449;28;20084;-68
2023/07/23 00:25:50;;;;;;;15.60;14.10;;;;;;;;;;10269890;28;20500;-70
2023/07/23 00:30:46;;;;;;;15.98;14.27;;;;;;;;;;10269410;28;20540;-71
2023/07/23 00:35:42;;;;;;;16.08;14.60;;;;;;;;;;10274604;28;20476;-70
2023/07/23 00:40:39;;;;;;;16.77;15.18;;;;;;;;;;10281954;28;20060;-67
2023/07/23 00:45:36;;;;;;;18.70;17.02;;;;;;;;;;10278105;28;20046;-67
2023/07/23 00:50:32;;;;;;;18.02;16.35;;;;;;;;;;10284073;28;20402;-69
2023/07/23 00:55:28;;;;;;;16.65;15.15;;;;;;;;;;10302145;28;20048;-68
2023/07/23 01:00:25;;;;;;;17.88;16.15;;;;;;;;;;10313536;28;20412;-68
2023/07/23 01:05:21;;;;;;;17.63;16.00;;;;;;;;;;10314104;28;20565;-68
2023/07/23 01:10:19;;;;;;;17.63;16.02;;;;;;;;;;10310795;28;20045;-68
2023/07/23 01:15:15;;;;;;;18.15;16.38;;;;;;;;;;10304430;28;20059;-67
2023/07/23 01:20:12;;;;;;;20.83;18.83;;;;;;;;;;10314294;28;20040;-68
2023/07/23 01:25:08;;;;;;;18.95;17.15;;;;;;;;;;10312094;28;20056;-68
2023/07/23 01:30:05;;;;;;;19.65;17.95;;;;;;;;;;10323237;28;20055;-72
2023/07/23 01:35:13;;;;;;;18.85;17.15;;;;;;;;;;10311887;28;20059;-69
2023/07/23 01:40:12;;;;;;;19.42;17.70;;;;;;;;;;10323730;28;20051;-69
2023/07/23 01:45:08;;;;;;;19.20;17.48;;;;;;;;;;10294246;28;20052;-72
2023/07/23 01:50:05;;;;;;;19.95;18.05;;;;;;;;;;10311553;28;20518;-68
2023/07/23 01:55:01;;;;;;;19.42;17.58;;;;;;;;;;10312368;28;20094;-68
2023/07/23 01:59:58;;;;;;;20.35;18.45;;;;;;;;;;10314855;28;20080;-69
2023/07/23 02:04:54;;;;;;;20.75;18.75;;;;;;;;;;10301475;28;20565;-70
2023/07/23 02:09:51;;;;;;;21.33;19.35;;;;;;;;;;10309405;28;20044;-70
2023/07/23 02:14:47;;;;;;;21.00;18.80;;;;;;;;;;10311943;28;20047;-69
2023/07/23 02:19:43;;;;;;;20.90;18.80;;;;;;;;;;10320741;28;20440;-68
2023/07/23 02:24:40;;;;;;;20.52;18.77;;;;;;;;;;10315889;28;20055;-68
2023/07/23 02:29:36;;;;;;;19.73;17.92;;;;;;;;;;10317175;28;20109;-70
2023/07/23 02:34:33;;;;;;;20.55;18.65;;;;;;;;;;10315458;28;20094;-69
2023/07/23 02:39:30;;;;;;;22.40;20.20;;;;;;;;;;10307555;28;20072;-71
2023/07/23 02:44:26;;;;;;;21.65;19.58;;;;;;;;;;10315466;28;20056;-71
2023/07/23 02:49:23;;;;;;;20.83;18.98;;;;;;;;;;10312178;28;20044;-69
2023/07/23 02:54:19;;;;;;;23.83;21.40;;;;;;;;;;10317051;28;20442;-68
2023/07/23 02:59:15;;;;;;;21.23;18.92;;;;;;;;;;10326409;28;20420;-67
2023/07/23 03:04:13;;;;;;;20.73;18.73;;;;;;;;;;10326826;28;20064;-70
2023/07/23 03:09:10;;;;;;;19.58;17.65;;;;;;;;;;10319068;28;20447;-69
2023/07/23 03:14:06;;;;;;;19.67;17.88;;;;;;;;;;10329188;28;20114;-69
2023/07/23 03:19:02;;;;;;;19.88;18.17;;;;;;;;;;10318990;28;20052;-68
2023/07/23 03:23:59;;;;;;;21.73;19.77;;;;;;;;;;10315136;28;20064;-68
2023/07/23 03:28:55;;;;;;;19.23;17.42;;;;;;;;;;10329307;28;20080;-70
2023/07/23 03:33:51;;;;;;;19.33;17.45;;;;;;;;;;10316552;28;20040;-70
2023/07/23 03:43:59;;;;;;;20.73;18.80;;;;;;;;;;10285173;22;20049;-70
2023/07/23 03:48:55;;;;;;;19.95;17.85;;;;;;;;;;10256421;28;20052;-68
2023/07/23 03:53:51;;;;;;;19.73;17.92;;;;;;;;;;10259916;28;20057;-68
2023/07/23 03:58:48;;;;;;;23.52;21.08;;;;;;;;;;10256143;28;20725;-68
2023/07/23 04:03:44;;;;;;;21.15;19.15;;;;;;;;;;10264821;28;20053;-67
2023/07/23 04:08:41;;;;;;;20.50;18.42;;;;;;;;;;10266956;28;20049;-69
2023/07/23 04:13:37;;;;;;;22.40;19.70;;;;;;;;;;10255089;28;20037;-69
2023/07/23 04:23:53;;;;;;;21.20;19.05;;;;;;;;;;9483113;26;20050;-69
2023/07/23 04:28:49;;;;;;;17.17;15.48;;;;;;;;;;10186109;28;20066;-68
2023/07/23 04:33:46;;;;;;;19.70;17.80;;;;;;;;;;10220841;28;20092;-69
2023/07/23 04:44:17;;;;;;;17.80;16.00;;;;;;;;;;8427349;26;20049;-69
2023/07/23 04:49:14;;;;;;;18.25;16.40;;;;;;;;;;10262561;28;20064;-70
2023/07/23 04:54:10;;;;;;;17.85;15.95;;;;;;;;;;10256953;28;20127;-69
2023/07/23 04:59:07;;;;;;;17.98;16.15;;;;;;;;;;10262562;28;20147;-69
2023/07/23 05:04:03;;;;;;;17.48;15.90;;;;;;;;;;10263474;28;20481;-69
2023/07/23 05:09:00;;;;;;;18.17;16.35;;;;;;;;;;10255836;28;20061;-69
2023/07/23 05:13:56;;;;;;;18.90;15.55;;;;;;;;;;10256570;28;20041;-69
2023/07/23 05:18:52;;;;;;;16.38;14.68;;;;;;;;;;10255352;28;20048;-69
2023/07/23 05:23:49;;;;;;;15.90;14.40;;;;;;;;;;10251108;28;20130;-69
2023/07/23 05:28:45;;;;;;;17.27;15.65;;;;;;;;;;10259057;28;20058;-69
2023/07/23 05:33:41;;;;;;;16.33;14.75;;;;;;;;;;10263100;28;20056;-68
2023/07/23 05:38:38;;;;;;;16.30;14.70;;;;;;;;;;10260535;28;20045;-68
2023/07/23 05:43:34;;;;;;;15.65;14.15;;;;;;;;;;10310444;28;20056;-71
2023/07/23 05:48:30;;;;;;;14.57;13.15;;;;;;;;;;10313945;28;20505;-71
2023/07/23 05:53:26;;;;;;;15.27;13.88;;;;;;;;;;10302350;28;21324;-67
2023/07/23 05:58:23;;;;;;;15.05;13.60;;;;;;;;;;10308038;28;20094;-70
2023/07/23 06:03:19;;;;;;;15.52;13.98;;;;;;;;;;10293728;28;20102;-70
2023/07/23 06:08:16;;;;;;;14.68;13.43;;;;;;;;;;10309330;28;20045;-70
2023/07/23 06:13:12;;;;;;;14.30;13.07;;;;;;;;;;10308063;28;20504;-70
2023/07/23 06:18:08;;;;;;;15.70;14.15;;;;;;;;;;10311678;28;20415;-71
2023/07/23 06:23:04;;;;;;;14.88;13.48;;;;;;;;;;10280590;28;20076;-70
2023/07/23 06:28:01;;;;;;;15.77;12.82;;;;;;;;;;10309066;28;20527;-71
2023/07/23 06:32:57;;;;;;;14.48;12.95;;;;;;;;;;10299008;28;20049;-69
2023/07/23 06:37:54;;;;;;;14.77;13.25;;;;;;;;;;10304019;28;20049;-68
2023/07/23 06:42:50;;;;;;;14.70;13.38;;;;;;;;;;10303792;28;20488;-69
2023/07/23 06:47:46;;;;;;;15.38;13.85;;;;;;;;;;10306440;28;20052;-68
2023/07/23 06:52:45;;;;;;;14.88;13.38;;;;;;;;;;10309134;28;20407;-67
2023/07/23 06:57:41;;;;;;;14.18;12.68;;;;;;;;;;10303679;28;20071;-68
2023/07/23 07:02:38;;;;;;;14.88;13.45;;;;;;;;;;10308458;28;20045;-68
2023/07/23 07:07:35;;;;;;;14.95;13.43;;;;;;;;;;10310375;28;20427;-71
2023/07/23 07:12:31;;;;;;;15.77;14.07;;;;;;;;;;10309945;22;20528;-71
2023/07/23 07:17:28;;;;;;;15.00;13.30;;;;;;;;;;10227486;28;20046;-68
2023/07/23 07:22:24;;;;;;;15.23;13.73;;;;;;;;;;10225096;28;20045;-68
2023/07/23 07:27:20;;;;;;;16.85;14.20;;;;;;;;;;10237950;28;20045;-70
2023/07/23 07:32:16;;;;;;;16.02;14.43;;;;;;;;;;10253409;28;20092;-70
2023/07/23 07:37:13;;;;;;;16.85;14.95;;;;;;;;;;10241384;28;20045;-67
2023/07/23 07:42:09;;;;;;;16.05;14.55;;;;;;;;;;10232583;28;20046;-67
2023/07/23 07:47:06;;;;;;;17.75;15.38;;;;;;;;;;10216811;28;20044;-71
2023/07/23 07:52:02;;;;;;;17.10;15.30;;;;;;;;;;10212380;28;20068;-71
2023/07/23 07:56:59;;;;;;;20.65;15.10;;;;;;;;;;10222826;28;20461;-71
2023/07/23 08:01:56;;;;;;;16.65;15.15;;;;;;;;;;10226771;28;20057;-70
2023/07/23 08:06:52;;;;;;;17.05;15.30;;;;;;;;;;10220516;28;20057;-71
2023/07/23 08:11:49;;;;;;;17.30;15.85;;;;;;;;;;10227314;28;20049;-70
2023/07/23 08:16:47;;;;;;;17.20;15.63;;;;;;;;;;10226299;28;20045;-71
2023/07/23 08:21:43;;;;;;;16.20;14.82;;;;;;;;;;10230560;28;20461;-70
2023/07/23 08:26:42;;;;;;;17.60;15.77;;;;;;;;;;10238362;28;20048;-71
2023/07/23 08:31:39;;;;;;;17.42;15.73;;;;;;;;;;10228711;28;20134;-71
2023/07/23 08:36:35;;;;;;;16.58;14.98;;;;;;;;;;10203214;28;20052;-70
2023/07/23 08:41:36;;;;;;;18.27;16.58;;;;;;;;;;10225734;28;20049;-71
2023/07/23 08:46:36;;;;;;;18.60;16.95;;;;;;;;;;10216356;28;20071;-71
2023/07/23 08:51:34;;;;;;;17.13;15.38;;;;;;;;;;10213573;28;20053;-71
2023/07/23 08:56:30;;;;;;;17.88;16.17;;;;;;;;;;10219471;28;20053;-70
2023/07/23 09:01:28;;;;;;;19.35;17.63;;;;;;;;;;10223859;28;20056;-72
2023/07/23 09:06:29;;;;;;;19.45;17.50;;;;;;;;;;10224784;28;20128;-71
2023/07/23 09:11:26;;;;;;;18.35;16.75;;;;;;;;;;10247048;28;20496;-70
2023/07/23 09:16:23;;;;;;;17.65;16.00;;;;;;;;;;10231731;28;20108;-72
2023/07/23 09:21:24;;;;;;;17.15;15.70;;;;;;;;;;10216120;28;20516;-72
2023/07/23 09:26:24;;;;;;;19.88;17.77;;;;;;;;;;10220997;28;20049;-73
2023/07/23 09:36:45;;;;;;;19.98;17.98;;;;;;;;;;10246094;23;20075;-72
2023/07/23 09:46:46;;;;;;;19.65;18.05;;;;;;;;;;10245242;28;20505;-73
2023/07/23 09:57:14;;;;;;;20.77;18.77;;;;;;;;;;2726024;26;20127;-72
2023/07/23 10:02:11;;;;;;;21.20;19.30;;;;;;;;;;10232209;22;20056;-72
2023/07/23 10:07:07;;;;;;;22.13;19.83;;;;;;;;;;10207446;28;20053;-72
2023/07/23 10:12:04;;;;;;;21.30;19.20;;;;;;;;;;10560922;22;20068;-73
2023/07/23 10:17:01;;;;;;;20.83;18.65;;;;;;;;;;10287766;28;20052;-73
2023/07/23 10:21:57;;;;;;;20.50;18.40;;;;;;;;;;11171279;23;20667;-73
2023/07/23 10:26:54;;;;;;;20.85;19.02;;;;;;;;;;10299674;28;20109;-72
2023/07/23 10:37:14;;;;;;;21.15;19.02;;;;;;;;;;8618151;26;20044;-72
2023/07/23 10:42:30;;;;;;;21.17;19.15;;;;;;;;;;10469655;22;20041;-73
2023/07/23 10:47:31;;;;;;;19.08;17.30;;;;;;;;;;10295282;28;20052;-73
2023/07/23 10:52:31;;;;;;;17.98;16.27;;;;;;;;;;10343543;22;20088;-73
2023/07/23 10:57:28;;;;;;;17.70;16.15;;;;;;;;;;10223029;28;20112;-73
2023/07/23 11:08:47;;;;;;;17.38;15.73;;;;;;;;;;10254746;28;20032;-73
2023/07/23 11:14:03;;;;;;;19.65;17.67;;;;;;;;;;10294442;22;20067;-73
2023/07/23 11:30:01;;;;;;;16.20;14.63;;;;;;;;;;10251726;28;20048;-73
2023/07/23 11:35:00;;;;;;;17.00;15.23;;;;;;;;;;10257783;28;20119;-73
2023/07/23 11:45:03;;;;;;;16.50;13.38;;;;;;;;;;9299418;26;20042;-72
2023/07/23 11:55:27;;;;;;;14.80;13.30;;;;;;;;;;10242756;23;20050;-72
2023/07/23 12:05:38;;;;;;;15.43;13.82;;;;;;;;;;10991202;22;20057;-72
2023/07/23 12:16:07;;;;;;;14.23;12.87;;;;;;;;;;10340282;23;20509;-72
2023/07/23 12:26:14;;;;;;;13.20;11.52;;;;;;;;;;10180147;28;20045;-72
2023/07/23 12:31:11;;;;;;;14.00;11.75;;;;;;;;;;10177004;28;20073;-72
2023/07/23 12:36:07;;;;;;;12.25;10.95;;;;;;;;;;10165384;28;20140;-72
2023/07/23 13:01:51;;;;;;;11.87;10.67;;;;;;;;;;10478932;23;20053;-73
2023/07/23 13:06:48;;;;;;;12.10;11.00;;;;;;;;;;10254208;28;20095;-71
2023/07/23 13:11:45;;;;;;;12.88;11.43;;;;;;;;;;10252222;28;20053;-71
2023/07/23 13:16:41;;;;;;;11.70;10.57;;;;;;;;;;10245725;28;20053;-72
2023/07/23 13:47:30;;;;;;;13.80;12.50;;;;;;;;;;10671080;22;20050;-74
2023/07/23 13:52:57;;;;;;;15.35;13.85;;;;;;;;;;10922668;22;21078;-74
2023/07/23 13:57:54;;;;;;;17.15;15.35;;;;;;;;;;10206651;28;20057;-74
2023/07/23 16:03:10;;;;;;;9.53;8.73;;;;;;;;;;10393320;22;20049;-72
2023/07/23 16:08:07;;;;;;;9.15;8.45;;;;;;;;;;10245755;28;20467;-72
2023/07/23 16:23:35;;;;;;;9.38;8.60;;;;;;;;;;10272518;28;20131;-74
2023/07/23 16:28:32;;;;;;;10.10;9.20;;;;;;;;;;10277659;28;20079;-73
2023/07/23 18:56:05;;;;;;;10.32;9.52;;;;;;;;;;10261387;28;20048;-77
2023/07/23 19:52:29;;;;;;;10.75;9.93;;;;;;;;;;10122120;28;20073;-77
2023/07/23 19:57:25;;;;;;;12.13;11.02;;;;;;;;;;10139383;28;20042;-69
2023/07/23 20:02:22;;;;;;;13.07;12.00;;;;;;;;;;10134656;28;20074;-70
2023/07/23 20:07:18;;;;;;;13.05;12.05;;;;;;;;;;10129807;28;20521;-69
2023/07/23 20:12:15;;;;;;;13.25;12.25;;;;;;;;;;10121212;28;20577;-70
2023/07/23 20:17:11;;;;;;;12.43;11.43;;;;;;;;;;10118496;28;20046;-69
2023/07/23 20:22:08;;;;;;;12.50;11.32;;;;;;;;;;10133402;28;20146;-68
2023/07/23 20:27:04;;;;;;;12.45;11.25;;;;;;;;;;10140077;28;20063;-69
2023/07/23 20:32:03;;;;;;;11.90;10.90;;;;;;;;;;10146412;28;20046;-72
2023/07/23 20:37:00;;;;;;;12.30;11.20;;;;;;;;;;10147322;28;20045;-70
2023/07/23 20:41:58;;;;;;;12.40;11.30;;;;;;;;;;10143504;28;20046;-68
2023/07/23 20:46:54;;;;;;;12.20;11.10;;;;;;;;;;10130937;28;20133;-68
2023/07/23 20:51:51;;;;;;;11.77;10.80;;;;;;;;;;10148636;28;20442;-68
2023/07/23 20:56:47;;;;;;;11.80;10.82;;;;;;;;;;10147943;28;20046;-68
2023/07/23 21:01:43;;;;;;;12.18;11.07;;;;;;;;;;10147869;28;20142;-68
2023/07/23 21:06:40;;;;;;;11.85;10.85;;;;;;;;;;10127702;28;20069;-69
2023/07/23 21:11:36;;;;;;;10.68;9.77;;;;;;;;;;10139618;28;20042;-69
2023/07/23 21:16:35;;;;;;;11.57;10.57;;;;;;;;;;10134192;28;20360;-67
2023/07/23 21:21:31;;;;;;;10.98;10.07;;;;;;;;;;10138623;28;20046;-67
2023/07/23 21:26:36;;;;;;;11.40;10.50;;;;;;;;;;10140350;28;20054;-68
2023/07/23 21:31:37;;;;;;;11.65;10.75;;;;;;;;;;10141541;28;20070;-71
2023/07/23 21:36:33;;;;;;;10.35;9.55;;;;;;;;;;10146958;28;20120;-71
2023/07/23 21:41:29;;;;;;;11.48;10.38;;;;;;;;;;10146639;28;20097;-70
2023/07/23 21:46:26;;;;;;;11.60;10.48;;;;;;;;;;10136091;28;20054;-71
2023/07/23 21:51:23;;;;;;;10.30;9.50;;;;;;;;;;10148088;28;20451;-71
2023/07/23 21:56:19;;;;;;;9.80;9.00;;;;;;;;;;10126168;28;20100;-70
2023/07/23 22:01:16;;;;;;;9.40;8.70;;;;;;;;;;10145858;28;20459;-67
2023/07/23 22:06:12;;;;;;;9.50;8.70;;;;;;;;;;10143866;28;20049;-69
2023/07/23 22:11:08;;;;;;;8.68;7.97;;;;;;;;;;10146705;28;20534;-69
2023/07/23 22:16:05;;;;;;;8.55;7.85;;;;;;;;;;10134725;28;20519;-68
2023/07/23 22:21:01;;;;;;;12.23;8.60;;;;;;;;;;10140040;28;20065;-69
2023/07/23 22:25:57;;;;;;;13.52;7.85;;;;;;;;;;10143282;28;20058;-69
2023/07/23 22:30:56;;;;;;;8.50;7.70;;;;;;;;;;10144277;28;20430;-69
2023/07/23 22:35:53;;;;;;;9.25;8.35;;;;;;;;;;10135202;28;20046;-69
2023/07/23 22:40:49;;;;;;;9.15;7.20;;;;;;;;;;10143372;28;20046;-68
2023/07/23 22:45:45;;;;;;;8.07;7.38;;;;;;;;;;10144729;28;20096;-68
2023/07/23 22:50:42;;;;;;;8.52;7.82;;;;;;;;;;10141410;28;20547;-68
2023/07/23 22:55:38;;;;;;;7.95;7.28;;;;;;;;;;10137911;28;20050;-68
2023/07/23 23:00:35;;;;;;;8.82;8.02;;;;;;;;;;10152946;28;20046;-68
2023/07/23 23:05:32;;;;;;;8.23;7.53;;;;;;;;;;10143105;28;20047;-71
2023/07/23 23:10:28;;;;;;;8.15;7.45;;;;;;;;;;10159137;28;20076;-69
2023/07/23 23:15:25;;;;;;;8.07;7.28;;;;;;;;;;10141706;28;20101;-67
2023/07/23 23:20:21;;;;;;;8.55;7.85;;;;;;;;;;10135063;28;20106;-69
2023/07/23 23:25:17;;;;;;;8.35;7.55;;;;;;;;;;10143976;28;20085;-70
2023/07/23 23:30:15;;;;;;;8.60;7.90;;;;;;;;;;10148375;28;20057;-70
2023/07/23 23:35:14;;;;;;;8.57;7.88;;;;;;;;;;10150012;28;20490;-70
2023/07/23 23:40:10;;;;;;;8.90;8.10;;;;;;;;;;10151167;28;20053;-69
2023/07/23 23:45:07;;;;;;;9.38;7.75;;;;;;;;;;10140196;28;20054;-70
2023/07/23 23:50:04;;;;;;;8.65;7.95;;;;;;;;;;10139415;28;20062;-69
2023/07/23 23:55:00;;;;;;;8.30;7.60;;;;;;;;;;10147579;28;20454;-69
2023/07/23 23:59:56;;;;;;;8.88;8.07;;;;;;;;;;10152465;28;20057;-69
